aviador You're here:

YSSY Decoded Metar

SYDNEY in AUSTRALIA
Report Time2018-04-21 03:30:00
UTC Time2018-04-21 04:04:44
Flight Rules vfr VFR
Wind180° at 12 kt
W.Decomp.*RWY 16: 11.9 kt HW 1.7 kt RCW
RWY 25: 1.7 kt HW 11.9 kt LCW
W.Rank180° ranks 14
Current wind is below 180° avg. (14.4)
Visibility9999 m
Phenomena:N/A
Clouds:Few 028 Hf
Broken 065 Hf
Expected CloudBase > 2,000 ft AGL from Temp-Dew spread
Ceiling6,500 ft
Temp21°C (ISA +6)
Dew Point16°C (73% RH)
AAT18.7°C
QNH1021 hPa
Density Alt686 ft
Elevation10 ft
Report Wrong Elevation
Raw Report
YSSY 210330Z 18012KT 9999 FEW028 BKN065 21/16 Q1021 NOSIG=

Extra information for YSSY:More info

Metar Taf Metar & Taf Last 4 Metars F.Rules Stats Wind Profile Meteogram Temp Stats Airport Information Weather charts Add Link Nearby VenuesMetar ALERT Operation Metar Decoded Social comments